Time;durP1;ratioP1;P1;durP2;ratioP2;P2;SDS_P1;SDS_P2;PMS_P1;PMS_P2;Temp;Humidity;BMP_temperature;BMP_pressure;BME280_temperature;BME280_humidity;BME280_pressure;Samples;Min_cycle;Max_cycle;Signal;HPM_P1;HPM_P2
2022/09/17 00:07:05;;;;;;;4.25;0.93;;;;;;;11.16;100.00;100078.41;20728197;28;20046;-68
2022/09/17 00:17:06;;;;;;;2.70;0.90;;;;;;;11.13;100.00;100084.59;20727344;28;20056;-68
2022/09/17 00:27:08;;;;;;;4.45;0.88;;;;;;;11.15;100.00;100088.03;20775602;28;20486;-69
2022/09/17 00:37:09;;;;;;;4.32;0.90;;;;;;;11.14;100.00;100094.19;20806989;28;20053;-69
2022/09/17 00:47:11;;;;;;;3.83;0.80;;;;;;;11.02;100.00;100082.22;20807735;28;20053;-69
2022/09/17 00:57:12;;;;;;;3.00;0.85;;;;;;;11.05;100.00;100087.38;20816582;28;20058;-69
2022/09/17 01:07:13;;;;;;;3.72;1.00;;;;;;;11.03;100.00;100089.19;20802413;28;20061;-68
2022/09/17 01:17:15;;;;;;;2.65;0.90;;;;;;;10.97;100.00;100099.81;20822361;28;20140;-68
2022/09/17 01:27:16;;;;;;;5.45;1.17;;;;;;;10.76;100.00;100097.66;20822732;28;20452;-69
2022/09/17 01:37:18;;;;;;;4.32;1.05;;;;;;;10.76;100.00;100113.34;20789699;28;20054;-69
2022/09/17 01:47:19;;;;;;;3.78;0.93;;;;;;;10.69;100.00;100117.00;20738187;28;20053;-69
2022/09/17 01:57:21;;;;;;;2.80;1.00;;;;;;;10.65;100.00;100110.97;20738232;28;20556;-69
2022/09/17 02:07:22;;;;;;;3.13;0.73;;;;;;;10.61;100.00;100118.91;20736593;28;20058;-69
2022/09/17 02:17:24;;;;;;;4.10;0.93;;;;;;;10.43;100.00;100113.16;20737445;28;20053;-70
2022/09/17 02:27:25;;;;;;;3.47;0.70;;;;;;;10.22;100.00;100118.78;20735569;28;20053;-69
2022/09/17 02:37:26;;;;;;;4.70;1.08;;;;;;;10.07;100.00;100119.91;20734156;28;20050;-69
2022/09/17 02:58:09;;;;;;;4.82;1.27;;;;;;;9.67;100.00;100117.97;20767362;28;20049;-69
2022/09/17 03:08:11;;;;;;;3.65;1.33;;;;;;;9.52;100.00;100133.91;20813958;28;20046;-69
2022/09/17 03:18:12;;;;;;;6.45;1.58;;;;;;;9.57;100.00;100131.22;20812728;28;20091;-69
2022/09/17 03:28:14;;;;;;;7.60;1.45;;;;;;;9.39;100.00;100117.59;20813019;28;20083;-69
2022/09/17 03:38:15;;;;;;;11.27;2.00;;;;;;;9.39;100.00;100135.88;20811237;28;20156;-69
2022/09/17 03:48:16;;;;;;;4.88;1.58;;;;;;;9.42;100.00;100148.88;20810834;28;20528;-69
2022/09/17 03:58:17;;;;;;;5.75;2.30;;;;;;;9.28;100.00;100140.38;20810535;28;20064;-69
2022/09/17 04:08:19;;;;;;;7.82;2.17;;;;;;;9.32;100.00;100147.28;20808886;28;20085;-68
2022/09/17 04:18:20;;;;;;;10.20;2.58;;;;;;;9.30;100.00;100150.81;20808693;28;20107;-69
2022/09/17 04:28:21;;;;;;;9.80;1.90;;;;;;;9.36;100.00;100161.19;20810363;28;20273;-69
2022/09/17 04:38:23;;;;;;;8.68;1.85;;;;;;;9.42;100.00;100161.94;20807591;28;20085;-68
2022/09/17 04:48:24;;;;;;;4.60;1.88;;;;;;;9.43;100.00;100165.41;20777165;28;20061;-68
2022/09/17 04:58:25;;;;;;;8.85;2.28;;;;;;;9.55;100.00;100188.75;20725191;28;20046;-68
2022/09/17 05:08:27;;;;;;;3.92;1.70;;;;;;;9.57;100.00;100189.59;20725355;28;20057;-68
2022/09/17 05:18:28;;;;;;;7.15;2.10;;;;;;;9.64;100.00;100187.78;20724718;28;20084;-66
2022/09/17 05:28:29;;;;;;;9.30;2.20;;;;;;;9.70;100.00;100193.75;20724620;28;20787;-67
2022/09/17 05:38:31;;;;;;;8.75;2.33;;;;;;;9.76;100.00;100203.25;20724438;28;20133;-70
2022/09/17 05:48:32;;;;;;;7.97;2.10;;;;;;;9.58;100.00;100224.44;20739471;28;20085;-70
2022/09/17 05:58:34;;;;;;;7.95;2.60;;;;;;;9.60;100.00;100235.75;20738601;28;20073;-70
2022/09/17 06:08:35;;;;;;;7.32;3.35;;;;;;;9.61;100.00;100240.94;20736467;28;20490;-69
2022/09/17 06:18:37;;;;;;;9.05;3.35;;;;;;;9.75;100.00;100243.34;20735585;28;20357;-68
2022/09/17 06:28:38;;;;;;;5.30;2.60;;;;;;;9.89;100.00;100256.22;20734766;28;20058;-68
2022/09/17 06:38:42;;;;;;;9.20;2.85;;;;;;;9.91;100.00;100254.44;20733301;28;20060;-68
2022/09/17 06:48:43;;;;;;;9.25;2.85;;;;;;;10.16;100.00;100262.78;20733529;28;20457;-67
2022/09/17 06:58:45;;;;;;;8.15;2.60;;;;;;;10.25;100.00;100260.03;20732697;28;20418;-67
2022/09/17 07:08:47;;;;;;;7.78;3.17;;;;;;;10.21;100.00;100258.34;20732854;28;20491;-67
2022/09/17 07:18:48;;;;;;;8.15;2.90;;;;;;;10.40;100.00;100259.78;20796026;28;20050;-67
2022/09/17 07:28:49;;;;;;;12.85;3.03;;;;;;;10.92;100.00;100257.94;20725698;28;20052;-67
2022/09/17 07:38:51;;;;;;;8.23;2.30;;;;;;;11.46;100.00;100276.09;20725186;28;20081;-67
2022/09/17 07:48:52;;;;;;;6.15;1.90;;;;;;;11.67;100.00;100285.25;20723917;28;20104;-66
2022/09/17 07:58:53;;;;;;;11.80;2.25;;;;;;;11.51;100.00;100288.19;20723478;28;20073;-66
2022/09/17 08:08:54;;;;;;;6.72;1.70;;;;;;;11.26;100.00;100279.13;20724174;28;20069;-66
2022/09/17 08:18:56;;;;;;;10.90;2.75;;;;;;;11.61;100.00;100288.00;20646088;23;20052;-71
2022/09/17 08:28:58;;;;;;;7.22;2.13;;;;;;;12.37;100.00;100293.28;20577364;28;20054;-69
2022/09/17 08:49:21;;;;;;;8.77;1.80;;;;;;;12.51;100.00;100281.53;20554955;28;20058;-72
2022/09/17 08:59:22;;;;;;;9.90;1.95;;;;;;;12.73;100.00;100297.56;20556517;28;20055;-71
2022/09/17 09:09:23;;;;;;;8.57;1.98;;;;;;;13.08;100.00;100275.63;20562599;28;20288;-70
2022/09/17 09:19:25;;;;;;;6.50;1.40;;;;;;;12.97;100.00;100284.69;20573761;28;20055;-70
2022/09/17 09:29:27;;;;;;;6.20;1.38;;;;;;;13.39;95.98;100281.78;20578460;28;20055;-70
2022/09/17 09:39:34;;;;;;;8.60;1.85;;;;;;;13.77;93.00;100289.38;20576972;28;20317;-71
2022/09/17 09:49:44;;;;;;;6.33;1.43;;;;;;;14.47;86.14;100264.31;20576847;28;20043;-72
2022/09/17 09:59:45;;;;;;;4.15;1.42;;;;;;;14.19;87.70;100296.00;20563481;28;20589;-71
2022/09/17 10:09:51;;;;;;;7.05;1.63;;;;;;;14.43;87.52;100268.84;20546566;28;20057;-70
2022/09/17 10:19:52;;;;;;;5.85;1.60;;;;;;;14.74;81.68;100257.28;20557333;28;20161;-66
2022/09/17 10:29:53;;;;;;;5.50;1.20;;;;;;;14.89;79.96;100256.72;20572413;28;20082;-68
2022/09/17 10:39:55;;;;;;;5.05;1.48;;;;;;;14.34;88.40;100261.25;20571938;28;20146;-68
2022/09/17 10:49:58;;;;;;;6.55;1.30;;;;;;;14.75;84.45;100246.69;20570642;28;20050;-68
2022/09/17 11:00:00;;;;;;;4.35;1.30;;;;;;;14.86;83.07;100247.19;20569983;28;21167;-71
2022/09/17 11:10:01;;;;;;;6.50;1.63;;;;;;;14.62;86.93;100243.63;20569319;28;20058;-69
2022/09/17 11:20:03;;;;;;;6.85;1.50;;;;;;;14.91;83.47;100244.38;20568466;28;20046;-67
2022/09/17 11:30:04;;;;;;;5.03;0.90;;;;;;;14.35;89.94;100252.44;20567727;28;20062;-69
2022/09/17 11:40:06;;;;;;;5.70;1.10;;;;;;;13.29;100.00;100308.34;20571775;28;20051;-69
2022/09/17 11:50:08;;;;;;;4.97;1.02;;;;;;;11.76;100.00;100329.63;20566702;28;20444;-69
2022/09/17 12:00:09;;;;;;;5.43;1.08;;;;;;;11.55;100.00;100325.72;20566824;28;20150;-70
2022/09/17 12:10:10;;;;;;;5.65;1.52;;;;;;;11.66;100.00;100307.97;20565885;28;20082;-71
2022/09/17 12:20:12;;;;;;;5.38;1.13;;;;;;;12.37;100.00;100288.88;20564499;28;20089;-69
2022/09/17 12:30:13;;;;;;;5.43;1.30;;;;;;;13.16;100.00;100264.84;20563568;28;20085;-68
2022/09/17 12:40:18;;;;;;;5.57;1.02;;;;;;;13.39;100.00;100266.88;20564213;28;20046;-69
2022/09/17 12:50:19;;;;;;;4.95;2.05;;;;;;;13.86;100.00;100251.41;20568137;28;20055;-67
2022/09/17 13:00:21;;;;;;;6.07;1.25;;;;;;;14.07;100.00;100244.59;20579437;28;20101;-68
2022/09/17 13:10:22;;;;;;;4.57;1.52;;;;;;;14.17;100.00;100234.63;20578409;28;20054;-67
2022/09/17 13:20:24;;;;;;;4.15;1.27;;;;;;;14.24;100.00;100220.34;20578480;28;20094;-66
2022/09/17 13:30:25;;;;;;;6.53;1.60;;;;;;;14.32;100.00;100223.56;20578504;28;20054;-66
2022/09/17 13:40:26;;;;;;;4.10;1.02;;;;;;;14.21;100.00;100220.44;20576360;28;20109;-66
2022/09/17 13:50:28;;;;;;;4.88;1.10;;;;;;;14.56;100.00;100201.69;20574749;28;20055;-66
2022/09/17 14:00:30;;;;;;;3.58;0.95;;;;;;;14.35;94.50;100202.41;20574171;28;20579;-66
2022/09/17 14:10:32;;;;;;;5.63;1.23;;;;;;;14.47;93.13;100207.25;20574184;28;20157;-66
2022/09/17 14:20:33;;;;;;;4.70;1.23;;;;;;;14.70;93.90;100197.69;20934035;23;20107;-71
2022/09/17 14:30:35;;;;;;;6.45;1.42;;;;;;;14.91;86.93;100212.75;20899220;28;20476;-66
2022/09/17 14:40:36;;;;;;;5.30;1.35;;;;;;;14.54;87.41;100198.25;20897492;28;20049;-66
2022/09/17 14:50:38;;;;;;;5.97;1.65;;;;;;;14.54;89.01;100192.09;20895984;28;20417;-66
2022/09/17 15:00:39;;;;;;;4.97;1.00;;;;;;;14.27;89.00;100181.56;20883909;28;20140;-67
2022/09/17 15:10:41;;;;;;;5.80;1.50;;;;;;;14.21;93.44;100194.97;20890698;28;20548;-70
2022/09/17 15:20:42;;;;;;;5.43;1.10;;;;;;;14.38;88.05;100202.31;20893332;28;20057;-70
2022/09/17 15:30:45;;;;;;;5.47;1.63;;;;;;;14.69;88.98;100180.16;20893269;28;20594;-68
2022/09/17 15:41:07;;;;;;;8.30;1.50;;;;;;;15.05;89.86;100185.88;20895281;28;20072;-69
2022/09/17 15:51:09;;;;;;;6.55;1.48;;;;;;;14.58;91.13;100191.94;20892241;28;20148;-67
2022/09/17 16:01:10;;;;;;;6.80;1.50;;;;;;;14.15;100.00;100228.53;20889584;28;20049;-68
2022/09/17 16:11:12;;;;;;;5.15;1.10;;;;;;;13.00;100.00;100230.28;20874288;28;20053;-68
2022/09/17 16:21:13;;;;;;;3.83;1.00;;;;;;;12.50;100.00;100248.28;20883819;28;20048;-67
2022/09/17 16:31:14;;;;;;;2.83;0.85;;;;;;;12.49;100.00;100250.94;20884729;28;20084;-67
2022/09/17 16:41:16;;;;;;;3.30;1.70;;;;;;;12.56;100.00;100237.63;20884976;28;20053;-66
2022/09/17 16:51:17;;;;;;;5.20;1.00;;;;;;;12.40;100.00;100248.53;20884681;28;20061;-67
2022/09/17 17:01:18;;;;;;;4.45;0.90;;;;;;;12.47;100.00;100258.84;20884496;28;20140;-66
2022/09/17 17:11:20;;;;;;;6.57;2.58;;;;;;;12.49;100.00;100267.53;20883207;28;20493;-66
2022/09/17 17:21:21;;;;;;;3.53;1.02;;;;;;;12.43;100.00;100278.22;20884476;28;20421;-67
2022/09/17 17:31:23;;;;;;;5.25;1.00;;;;;;;12.28;100.00;100289.97;20874254;28;20084;-66
2022/09/17 17:41:26;;;;;;;3.15;1.20;;;;;;;12.22;100.00;100299.75;20895294;28;20057;-68
2022/09/17 17:51:27;;;;;;;3.78;1.10;;;;;;;12.27;100.00;100314.50;20897774;28;20148;-67
2022/09/17 18:01:28;;;;;;;7.28;2.00;;;;;;;11.99;100.00;100376.41;20897312;28;20132;-67
2022/09/17 18:11:30;;;;;;;4.78;1.00;;;;;;;11.16;100.00;100361.41;20897000;28;20142;-68
2022/09/17 18:21:31;;;;;;;4.63;1.05;;;;;;;10.40;100.00;100374.09;20896010;28;20099;-67
2022/09/17 18:31:32;;;;;;;5.00;0.85;;;;;;;10.38;100.00;100371.47;20896135;28;20102;-66
2022/09/17 18:41:36;;;;;;;3.53;1.08;;;;;;;10.10;100.00;100376.22;20894161;28;20053;-67
2022/09/17 18:51:37;;;;;;;6.28;1.00;;;;;;;9.78;100.00;100384.53;20893287;28;20049;-66
2022/09/17 19:01:38;;;;;;;8.07;5.07;;;;;;;9.90;100.00;100393.94;20892828;28;20052;-66
2022/09/17 19:11:40;;;;;;;2.47;0.80;;;;;;;9.86;100.00;100403.56;20893073;28;20068;-66
2022/09/17 19:21:41;;;;;;;4.20;1.20;;;;;;;9.97;100.00;100401.69;20890977;28;20091;-68
2022/09/17 19:31:43;;;;;;;4.97;1.20;;;;;;;10.23;100.00;100429.25;20889370;28;20386;-66
2022/09/17 19:41:44;;;;;;;3.45;1.05;;;;;;;10.33;100.00;100423.03;20890207;28;20061;-68
2022/09/17 19:51:46;;;;;;;3.53;1.10;;;;;;;10.39;100.00;100436.03;20888741;28;20489;-67
2022/09/17 20:01:48;;;;;;;6.32;1.35;;;;;;;10.36;100.00;100443.06;20888259;28;20041;-66
2022/09/17 20:11:50;;;;;;;4.63;1.30;;;;;;;10.31;100.00;100431.81;20878066;28;20049;-67
2022/09/17 20:21:51;;;;;;;4.60;1.38;;;;;;;10.35;100.00;100434.38;20888314;28;20172;-69
2022/09/17 20:31:52;;;;;;;2.65;1.00;;;;;;;10.31;100.00;100440.53;20887002;28;20055;-68
2022/09/17 20:41:54;;;;;;;6.93;0.95;;;;;;;10.26;100.00;100450.19;20887246;28;20060;-71
2022/09/17 20:51:56;;;;;;;4.10;1.40;;;;;;;10.17;100.00;100460.75;20887564;28;20049;-72
2022/09/17 21:01:57;;;;;;;7.45;1.70;;;;;;;10.08;100.00;100471.31;20904911;28;20049;-72
2022/09/17 21:11:59;;;;;;;7.25;1.60;;;;;;;10.22;100.00;100474.63;20891203;28;20045;-71
2022/09/17 21:22:00;;;;;;;5.00;1.40;;;;;;;10.25;100.00;100479.84;20902770;28;20061;-71
2022/09/17 21:32:01;;;;;;;6.70;1.45;;;;;;;10.25;100.00;100479.84;20901809;28;20083;-73
2022/09/17 21:42:03;;;;;;;6.15;1.33;;;;;;;10.24;100.00;100489.44;20901724;28;20482;-71
2022/09/17 21:52:04;;;;;;;10.18;2.03;;;;;;;10.25;100.00;100487.69;20900733;28;20110;-71
2022/09/17 22:02:05;;;;;;;6.60;1.80;;;;;;;10.33;100.00;100493.69;20899821;28;20045;-71
2022/09/17 22:12:07;;;;;;;5.30;1.92;;;;;;;10.29;100.00;100497.22;20899926;28;20108;-71
2022/09/17 22:22:08;;;;;;;9.52;1.73;;;;;;;10.46;100.00;100490.03;20900885;28;20053;-71
2022/09/17 22:32:10;;;;;;;6.03;1.40;;;;;;;10.56;100.00;100489.91;20899729;28;20053;-70
2022/09/17 22:42:11;;;;;;;7.40;1.38;;;;;;;10.59;100.00;100482.00;20900044;28;20577;-70
2022/09/17 22:52:12;;;;;;;11.13;1.30;;;;;;;10.59;100.00;100484.59;20899125;28;20536;-70
2022/09/17 23:02:14;;;;;;;7.60;1.15;;;;;;;10.58;100.00;100482.88;20898860;28;20057;-70
2022/09/17 23:12:15;;;;;;;6.55;1.40;;;;;;;10.54;100.00;100482.09;20907171;28;20505;-70
2022/09/17 23:22:16;;;;;;;7.95;1.70;;;;;;;10.58;100.00;100473.28;20892795;28;20147;-70
2022/09/17 23:32:18;;;;;;;3.30;1.10;;;;;;;10.51;100.00;100472.50;20891047;28;20111;-69
2022/09/17 23:42:19;;;;;;;7.90;1.60;;;;;;;10.53;100.00;100481.19;20903147;28;20493;-69
2022/09/17 23:52:20;;;;;;;7.05;1.30;;;;;;;10.43;100.00;100478.72;20902297;28;20458;-70
